TimeCDT,TemperatureF,Dew PointF,Humidity,Sea Level PressureIn,VisibilityMPH,Wind Direction,Wind SpeedMPH,Gust SpeedMPH,PrecipitationIn,Events,Conditions,WindDirDegrees,DateUTC
12:53 AM,82.0,68.0,62,29.83,10.0,South,16.1,-,N/A,,Clear,170,2013-06-21 05:53:00
1:53 AM,81.0,66.9,62,29.83,10.0,South,17.3,24.2,N/A,,Clear,170,2013-06-21 06:53:00
2:53 AM,80.1,66.0,62,29.81,10.0,South,17.3,-,N/A,,Clear,170,2013-06-21 07:53:00
3:53 AM,79.0,66.0,64,29.81,10.0,South,15.0,23.0,N/A,,Clear,170,2013-06-21 08:53:00
4:53 AM,79.0,66.0,64,29.81,10.0,South,16.1,-,N/A,,Clear,170,2013-06-21 09:53:00
5:53 AM,78.1,66.0,66,29.83,10.0,South,15.0,23.0,N/A,,Clear,180,2013-06-21 10:53:00
6:53 AM,77.0,66.0,69,29.84,10.0,South,9.2,-,N/A,,Clear,180,2013-06-21 11:53:00
7:53 AM,79.0,66.0,64,29.84,10.0,South,17.3,25.3,N/A,,Clear,180,2013-06-21 12:53:00
8:53 AM,82.0,66.0,58,29.83,10.0,South,15.0,24.2,N/A,,Clear,180,2013-06-21 13:53:00
9:53 AM,84.9,66.0,53,29.84,10.0,South,24.2,31.1,N/A,,Clear,190,2013-06-21 14:53:00
10:53 AM,90.0,66.9,46,29.83,10.0,South,20.7,32.2,N/A,,Clear,190,2013-06-21 15:53:00
11:53 AM,91.9,66.9,44,29.83,10.0,South,19.6,36.8,N/A,,Clear,180,2013-06-21 16:53:00
12:53 PM,93.9,66.0,40,29.83,10.0,South,19.6,28.8,N/A,,Clear,180,2013-06-21 17:53:00
1:53 PM,93.9,66.0,40,29.83,10.0,South,20.7,32.2,N/A,,Clear,180,2013-06-21 18:53:00
2:53 PM,96.1,66.0,37,29.80,10.0,South,26.5,34.5,N/A,,Clear,170,2013-06-21 19:53:00
3:53 PM,96.1,62.1,32,29.78,10.0,South,23.0,36.8,N/A,,Clear,180,2013-06-21 20:53:00
4:53 PM,95.0,64.0,36,29.79,10.0,South,19.6,29.9,N/A,,Clear,170,2013-06-21 21:53:00
5:53 PM,93.0,66.0,41,29.78,10.0,South,20.7,27.6,N/A,,Clear,170,2013-06-21 22:53:00
6:53 PM,91.9,64.9,41,29.78,10.0,SSE,15.0,-,N/A,,Clear,160,2013-06-21 23:53:00
7:53 PM,91.0,66.9,45,29.79,10.0,South,18.4,29.9,N/A,,Clear,170,2013-06-22 00:53:00
8:53 PM,88.0,68.0,51,29.78,9.0,SSE,19.6,28.8,N/A,,Clear,160,2013-06-22 01:53:00
9:53 PM,84.9,69.1,59,29.81,10.0,SSE,18.4,-,N/A,,Clear,160,2013-06-22 02:53:00
10:53 PM,84.9,69.1,59,29.83,10.0,South,18.4,26.5,N/A,,Clear,170,2013-06-22 03:53:00
11:53 PM,84.0,69.1,61,29.83,10.0,South,20.7,28.8,N/A,,Clear,170,2013-06-22 04:53:00